sensor_id;sensor_type;location;lat;lon;timestamp;pressure;altitude;pressure_sealevel;temperature;humidity
73566;BME280;61846;52.970;-3.168;2023-04-30T00:02:03;101060.18;;;17.13;47.73
73566;BME280;61846;52.970;-3.168;2023-04-30T00:04:29;101061.44;;;16.96;48.11
73566;BME280;61846;52.970;-3.168;2023-04-30T00:06:55;101061.55;;;17.56;47.24
73566;BME280;61846;52.970;-3.168;2023-04-30T00:09:20;101063.83;;;16.94;48.12
73566;BME280;61846;52.970;-3.168;2023-04-30T00:11:45;101059.45;;;17.07;47.94
73566;BME280;61846;52.970;-3.168;2023-04-30T00:14:11;101058.47;;;17.06;47.07
73566;BME280;61846;52.970;-3.168;2023-04-30T00:16:37;101061.55;;;16.42;48.17
73566;BME280;61846;52.970;-3.168;2023-04-30T00:19:02;101062.18;;;16.86;47.69
73566;BME280;61846;52.970;-3.168;2023-04-30T00:21:28;101059.19;;;17.38;47.05
73566;BME280;61846;52.970;-3.168;2023-04-30T00:23:53;101057.70;;;17.25;46.32
73566;BME280;61846;52.970;-3.168;2023-04-30T00:26:19;101062.25;;;17.39;46.56
73566;BME280;61846;52.970;-3.168;2023-04-30T00:28:44;101061.12;;;17.31;47.26
73566;BME280;61846;52.970;-3.168;2023-04-30T00:31:10;101057.43;;;17.30;47.14
73566;BME280;61846;52.970;-3.168;2023-04-30T00:33:35;101055.03;;;17.05;47.54
73566;BME280;61846;52.970;-3.168;2023-04-30T00:36:00;101052.53;;;16.46;48.46
73566;BME280;61846;52.970;-3.168;2023-04-30T00:38:25;101054.11;;;15.95;49.70
73566;BME280;61846;52.970;-3.168;2023-04-30T00:40:51;101049.96;;;16.18;49.30
73566;BME280;61846;52.970;-3.168;2023-04-30T00:43:16;101052.72;;;16.70;48.34
73566;BME280;61846;52.970;-3.168;2023-04-30T00:45:41;101055.38;;;16.69;48.32
73566;BME280;61846;52.970;-3.168;2023-04-30T00:48:06;101052.76;;;15.82;49.25
73566;BME280;61846;52.970;-3.168;2023-04-30T00:50:32;101053.70;;;16.76;47.78
73566;BME280;61846;52.970;-3.168;2023-04-30T00:52:57;101052.68;;;16.68;47.85
73566;BME280;61846;52.970;-3.168;2023-04-30T00:55:22;101046.78;;;17.08;46.86
73566;BME280;61846;52.970;-3.168;2023-04-30T00:57:48;101048.16;;;16.06;48.70
73566;BME280;61846;52.970;-3.168;2023-04-30T01:00:13;101049.22;;;16.84;47.38
73566;BME280;61846;52.970;-3.168;2023-04-30T01:02:37;101051.12;;;16.66;47.46
73566;BME280;61846;52.970;-3.168;2023-04-30T01:05:03;101050.76;;;16.28;48.09
73566;BME280;61846;52.970;-3.168;2023-04-30T01:07:29;101052.58;;;15.82;49.33
73566;BME280;61846;52.970;-3.168;2023-04-30T01:09:54;101049.91;;;15.94;49.06
73566;BME280;61846;52.970;-3.168;2023-04-30T01:12:23;101052.11;;;15.42;50.04
73566;BME280;61846;52.970;-3.168;2023-04-30T01:14:53;101047.61;;;15.37;50.17
73566;BME280;61846;52.970;-3.168;2023-04-30T01:17:16;101045.82;;;16.06;48.74
73566;BME280;61846;52.970;-3.168;2023-04-30T01:19:40;101043.52;;;16.24;48.26
73566;BME280;61846;52.970;-3.168;2023-04-30T01:22:03;101037.53;;;15.99;48.88
73566;BME280;61846;52.970;-3.168;2023-04-30T01:24:40;101034.21;;;16.22;48.45
73566;BME280;61846;52.970;-3.168;2023-04-30T01:26:59;101035.11;;;16.25;48.29
73566;BME280;61846;52.970;-3.168;2023-04-30T01:29:18;101030.79;;;16.68;47.48
73566;BME280;61846;52.970;-3.168;2023-04-30T01:31:43;101029.41;;;16.53;47.94
73566;BME280;61846;52.970;-3.168;2023-04-30T01:34:07;101031.68;;;15.85;49.09
73566;BME280;61846;52.970;-3.168;2023-04-30T01:36:43;101033.38;;;15.63;49.36
73566;BME280;61846;52.970;-3.168;2023-04-30T01:39:14;101030.03;;;15.19;50.13
73566;BME280;61846;52.970;-3.168;2023-04-30T01:41:29;101025.80;;;16.23;48.31
73566;BME280;61846;52.970;-3.168;2023-04-30T01:43:56;101023.83;;;16.00;48.59
73566;BME280;61846;52.970;-3.168;2023-04-30T01:46:19;101021.37;;;15.72;49.15
73566;BME280;61846;52.970;-3.168;2023-04-30T01:48:47;101018.76;;;16.65;47.47
73566;BME280;61846;52.970;-3.168;2023-04-30T01:51:08;101019.26;;;16.23;48.26
73566;BME280;61846;52.970;-3.168;2023-04-30T01:53:35;101018.16;;;15.85;48.88
73566;BME280;61846;52.970;-3.168;2023-04-30T01:56:01;101014.64;;;16.14;48.31
73566;BME280;61846;52.970;-3.168;2023-04-30T01:58:23;101010.05;;;16.77;46.91
73566;BME280;61846;52.970;-3.168;2023-04-30T02:00:47;101010.66;;;16.86;46.83
73566;BME280;61846;52.970;-3.168;2023-04-30T02:03:13;101012.40;;;16.38;47.41
73566;BME280;61846;52.970;-3.168;2023-04-30T02:05:38;101011.44;;;16.09;47.74
73566;BME280;61846;52.970;-3.168;2023-04-30T02:08:04;101012.84;;;16.30;47.64
73566;BME280;61846;52.970;-3.168;2023-04-30T02:10:29;101013.10;;;16.35;46.91
73566;BME280;61846;52.970;-3.168;2023-04-30T02:12:55;101007.86;;;16.53;46.47
73566;BME280;61846;52.970;-3.168;2023-04-30T02:15:21;101009.99;;;15.77;47.66
73566;BME280;61846;52.970;-3.168;2023-04-30T02:17:46;101003.98;;;16.54;46.18
73566;BME280;61846;52.970;-3.168;2023-04-30T02:20:11;101004.42;;;16.84;45.99
73566;BME280;61846;52.970;-3.168;2023-04-30T02:22:37;101005.20;;;16.56;46.05
73566;BME280;61846;52.970;-3.168;2023-04-30T02:25:03;101005.29;;;16.32;46.43
73566;BME280;61846;52.970;-3.168;2023-04-30T02:27:30;101005.18;;;16.89;45.79
73566;BME280;61846;52.970;-3.168;2023-04-30T02:29:53;101004.69;;;16.65;45.72
73566;BME280;61846;52.970;-3.168;2023-04-30T02:32:19;101004.40;;;16.46;46.39
73566;BME280;61846;52.970;-3.168;2023-04-30T02:34:45;101003.88;;;15.72;47.37
73566;BME280;61846;52.970;-3.168;2023-04-30T02:37:11;101000.66;;;15.72;48.48
73566;BME280;61846;52.970;-3.168;2023-04-30T02:39:36;100994.90;;;15.64;47.95
73566;BME280;61846;52.970;-3.168;2023-04-30T02:42:02;100998.64;;;15.79;48.69
73566;BME280;61846;52.970;-3.168;2023-04-30T02:44:27;100999.62;;;14.61;50.13
73566;BME280;61846;52.970;-3.168;2023-04-30T02:46:53;100999.14;;;15.40;49.29
73566;BME280;61846;52.970;-3.168;2023-04-30T02:49:18;101000.50;;;15.45;49.70
73566;BME280;61846;52.970;-3.168;2023-04-30T02:51:44;100996.05;;;15.90;48.41
73566;BME280;61846;52.970;-3.168;2023-04-30T02:54:10;100995.98;;;15.89;47.98
73566;BME280;61846;52.970;-3.168;2023-04-30T02:56:35;100996.67;;;16.19;47.45
73566;BME280;61846;52.970;-3.168;2023-04-30T02:59:01;100992.58;;;16.37;47.01
73566;BME280;61846;52.970;-3.168;2023-04-30T03:01:26;100992.67;;;16.32;47.55
73566;BME280;61846;52.970;-3.168;2023-04-30T03:03:52;100995.20;;;15.37;49.25
73566;BME280;61846;52.970;-3.168;2023-04-30T03:06:17;100993.70;;;16.22;48.30
73566;BME280;61846;52.970;-3.168;2023-04-30T03:08:42;100992.96;;;16.32;48.26
73566;BME280;61846;52.970;-3.168;2023-04-30T03:11:08;100989.73;;;16.49;47.32
73566;BME280;61846;52.970;-3.168;2023-04-30T03:13:33;100986.20;;;16.32;46.94
73566;BME280;61846;52.970;-3.168;2023-04-30T03:15:58;100991.71;;;16.28;47.42
73566;BME280;61846;52.970;-3.168;2023-04-30T03:18:23;100994.24;;;15.45;49.53
73566;BME280;61846;52.970;-3.168;2023-04-30T03:20:49;100990.21;;;15.78;48.06
73566;BME280;61846;52.970;-3.168;2023-04-30T03:23:14;100993.89;;;15.26;49.84
73566;BME280;61846;52.970;-3.168;2023-04-30T03:25:39;100992.72;;;15.77;48.78
73566;BME280;61846;52.970;-3.168;2023-04-30T03:28:05;100990.61;;;15.98;48.37
73566;BME280;61846;52.970;-3.168;2023-04-30T03:30:31;100986.30;;;16.37;47.52
73566;BME280;61846;52.970;-3.168;2023-04-30T03:32:56;100987.90;;;15.70;47.66
73566;BME280;61846;52.970;-3.168;2023-04-30T03:35:22;100985.81;;;15.90;47.76
73566;BME280;61846;52.970;-3.168;2023-04-30T03:37:47;100986.59;;;15.55;48.88
73566;BME280;61846;52.970;-3.168;2023-04-30T03:40:13;100981.80;;;15.44;48.18
73566;BME280;61846;52.970;-3.168;2023-04-30T03:42:38;100982.02;;;15.82;48.28
73566;BME280;61846;52.970;-3.168;2023-04-30T03:45:05;100980.45;;;16.05;47.58
73566;BME280;61846;52.970;-3.168;2023-04-30T03:47:29;100980.55;;;15.13;49.20
73566;BME280;61846;52.970;-3.168;2023-04-30T03:49:54;100980.87;;;14.83;49.91
73566;BME280;61846;52.970;-3.168;2023-04-30T03:52:20;100985.03;;;15.02;49.71
73566;BME280;61846;52.970;-3.168;2023-04-30T03:54:45;100980.19;;;15.61;47.96
73566;BME280;61846;52.970;-3.168;2023-04-30T03:57:11;100979.18;;;15.55;48.37
73566;BME280;61846;52.970;-3.168;2023-04-30T03:59:37;100977.59;;;15.76;47.67
73566;BME280;61846;52.970;-3.168;2023-04-30T04:02:02;100979.24;;;16.17;47.49
73566;BME280;61846;52.970;-3.168;2023-04-30T04:04:29;100978.94;;;15.46;49.24
73566;BME280;61846;52.970;-3.168;2023-04-30T04:06:53;100979.42;;;15.64;48.79
73566;BME280;61846;52.970;-3.168;2023-04-30T04:09:19;100977.31;;;16.19;47.28
73566;BME280;61846;52.970;-3.168;2023-04-30T04:11:45;100980.12;;;16.28;47.54
73566;BME280;61846;52.970;-3.168;2023-04-30T04:14:10;100977.46;;;15.93;48.30
73566;BME280;61846;52.970;-3.168;2023-04-30T04:16:36;100975.06;;;16.35;47.57
73566;BME280;61846;52.970;-3.168;2023-04-30T04:19:02;100971.92;;;15.79;48.25
73566;BME280;61846;52.970;-3.168;2023-04-30T04:21:27;100974.39;;;15.62;48.87
73566;BME280;61846;52.970;-3.168;2023-04-30T04:23:52;100975.18;;;15.36;49.11
73566;BME280;61846;52.970;-3.168;2023-04-30T04:26:18;100977.45;;;15.85;48.27
73566;BME280;61846;52.970;-3.168;2023-04-30T04:28:44;100972.74;;;16.32;46.84
73566;BME280;61846;52.970;-3.168;2023-04-30T04:31:09;100980.80;;;15.45;48.90
73566;BME280;61846;52.970;-3.168;2023-04-30T04:33:35;100980.03;;;16.02;47.78
73566;BME280;61846;52.970;-3.168;2023-04-30T04:36:00;100981.19;;;16.06;48.20
73566;BME280;61846;52.970;-3.168;2023-04-30T04:38:26;100976.93;;;15.98;48.02
73566;BME280;61846;52.970;-3.168;2023-04-30T04:40:52;100971.81;;;15.88;48.09
73566;BME280;61846;52.970;-3.168;2023-04-30T04:43:17;100969.77;;;15.26;48.95
73566;BME280;61846;52.970;-3.168;2023-04-30T04:45:43;100973.71;;;15.65;48.02
73566;BME280;61846;52.970;-3.168;2023-04-30T04:48:08;100971.29;;;16.11;47.59
73566;BME280;61846;52.970;-3.168;2023-04-30T04:50:34;100970.28;;;16.15;47.99
73566;BME280;61846;52.970;-3.168;2023-04-30T04:52:59;100972.28;;;14.99;49.42
73566;BME280;61846;52.970;-3.168;2023-04-30T04:55:24;100970.67;;;14.35;50.83
73566;BME280;61846;52.970;-3.168;2023-04-30T04:57:50;100964.93;;;15.10;49.70
73566;BME280;61846;52.970;-3.168;2023-04-30T05:00:15;100962.44;;;12.73;55.29
73566;BME280;61846;52.970;-3.168;2023-04-30T05:02:40;100958.63;;;14.60;51.36
73566;BME280;61846;52.970;-3.168;2023-04-30T05:05:07;100955.18;;;15.42;49.05
73566;BME280;61846;52.970;-3.168;2023-04-30T05:07:31;100954.61;;;15.27;49.62
73566;BME280;61846;52.970;-3.168;2023-04-30T05:09:56;100955.17;;;14.86;50.04
73566;BME280;61846;52.970;-3.168;2023-04-30T05:12:21;100957.52;;;15.36;48.91
73566;BME280;61846;52.970;-3.168;2023-04-30T05:14:47;100955.24;;;15.78;48.11
73566;BME280;61846;52.970;-3.168;2023-04-30T05:17:12;100954.67;;;16.25;47.86
73566;BME280;61846;52.970;-3.168;2023-04-30T05:19:38;100953.60;;;15.16;48.84
73566;BME280;61846;52.970;-3.168;2023-04-30T05:22:04;100950.02;;;15.46;48.33
73566;BME280;61846;52.970;-3.168;2023-04-30T05:24:29;100951.21;;;12.95;53.45
73566;BME280;61846;52.970;-3.168;2023-04-30T05:26:55;100954.50;;;14.08;51.77
73566;BME280;61846;52.970;-3.168;2023-04-30T05:29:21;100958.82;;;14.59;50.70
73566;BME280;61846;52.970;-3.168;2023-04-30T05:31:46;100957.44;;;15.01;49.78
73566;BME280;61846;52.970;-3.168;2023-04-30T05:34:12;100958.81;;;13.72;52.97
73566;BME280;61846;52.970;-3.168;2023-04-30T05:36:38;100955.53;;;15.70;49.51
73566;BME280;61846;52.970;-3.168;2023-04-30T05:39:02;100955.24;;;15.45;48.88
73566;BME280;61846;52.970;-3.168;2023-04-30T05:41:28;100958.01;;;15.07;49.67
73566;BME280;61846;52.970;-3.168;2023-04-30T05:43:53;100957.79;;;13.38;53.94
73566;BME280;61846;52.970;-3.168;2023-04-30T05:46:19;100960.21;;;13.51;53.49
73566;BME280;61846;52.970;-3.168;2023-04-30T05:48:44;100957.08;;;14.13;51.99
73566;BME280;61846;52.970;-3.168;2023-04-30T05:51:09;100958.69;;;14.97;50.28
73566;BME280;61846;52.970;-3.168;2023-04-30T05:53:34;100959.42;;;13.96;51.60
73566;BME280;61846;52.970;-3.168;2023-04-30T05:56:00;100959.31;;;13.99;52.09
73566;BME280;61846;52.970;-3.168;2023-04-30T05:58:25;100959.96;;;14.57;51.53
73566;BME280;61846;52.970;-3.168;2023-04-30T06:00:51;100959.90;;;14.34;51.87
73566;BME280;61846;52.970;-3.168;2023-04-30T06:03:17;100960.90;;;14.40;52.04
73566;BME280;61846;52.970;-3.168;2023-04-30T06:05:42;100964.58;;;13.53;52.93
73566;BME280;61846;52.970;-3.168;2023-04-30T06:08:07;100962.05;;;12.43;55.44
73566;BME280;61846;52.970;-3.168;2023-04-30T06:10:33;100963.58;;;13.79;52.90
73566;BME280;61846;52.970;-3.168;2023-04-30T06:12:59;100969.59;;;12.23;56.36
73566;BME280;61846;52.970;-3.168;2023-04-30T06:15:24;100965.34;;;13.28;53.58
73566;BME280;61846;52.970;-3.168;2023-04-30T06:17:50;100966.21;;;14.45;51.61
73566;BME280;61846;52.970;-3.168;2023-04-30T06:20:15;100966.44;;;14.86;50.93
73566;BME280;61846;52.970;-3.168;2023-04-30T06:22:40;100964.46;;;15.52;49.61
73566;BME280;61846;52.970;-3.168;2023-04-30T06:25:07;100962.20;;;13.25;53.32
73566;BME280;61846;52.970;-3.168;2023-04-30T06:27:31;100962.61;;;14.19;51.77
73566;BME280;61846;52.970;-3.168;2023-04-30T06:29:57;100967.06;;;13.30;52.27
73566;BME280;61846;52.970;-3.168;2023-04-30T06:32:23;100966.35;;;15.51;49.47
73566;BME280;61846;52.970;-3.168;2023-04-30T06:34:49;100967.15;;;15.64;48.45
73566;BME280;61846;52.970;-3.168;2023-04-30T06:37:14;100967.32;;;14.69;50.02
73566;BME280;61846;52.970;-3.168;2023-04-30T06:39:40;100963.09;;;15.85;47.86
73566;BME280;61846;52.970;-3.168;2023-04-30T06:42:05;100965.82;;;15.92;48.29
73566;BME280;61846;52.970;-3.168;2023-04-30T06:44:31;100967.18;;;16.15;47.73
73566;BME280;61846;52.970;-3.168;2023-04-30T06:46:57;100969.26;;;15.87;47.77
73566;BME280;61846;52.970;-3.168;2023-04-30T06:49:22;100974.08;;;15.95;47.26
73566;BME280;61846;52.970;-3.168;2023-04-30T06:51:47;100976.72;;;12.20;55.65
73566;BME280;61846;52.970;-3.168;2023-04-30T06:54:12;100973.22;;;14.32;50.72
73566;BME280;61846;52.970;-3.168;2023-04-30T06:56:38;100974.01;;;13.67;53.20
73566;BME280;61846;52.970;-3.168;2023-04-30T06:59:03;100972.63;;;13.65;52.61
73566;BME280;61846;52.970;-3.168;2023-04-30T07:01:29;100972.50;;;14.18;52.57
73566;BME280;61846;52.970;-3.168;2023-04-30T07:03:54;100978.18;;;12.17;55.80
73566;BME280;61846;52.970;-3.168;2023-04-30T07:06:20;100976.78;;;12.39;55.75
73566;BME280;61846;52.970;-3.168;2023-04-30T07:08:46;100980.87;;;11.56;57.97
73566;BME280;61846;52.970;-3.168;2023-04-30T07:11:12;100980.04;;;13.16;55.10
73566;BME280;61846;52.970;-3.168;2023-04-30T07:13:37;100978.63;;;12.06;57.33
73566;BME280;61846;52.970;-3.168;2023-04-30T07:16:03;100980.30;;;11.20;58.59
73566;BME280;61846;52.970;-3.168;2023-04-30T07:18:27;100968.88;;;12.62;55.67
73566;BME280;61846;52.970;-3.168;2023-04-30T07:20:54;100966.62;;;13.29;54.13
73566;BME280;61846;52.970;-3.168;2023-04-30T07:23:18;100972.60;;;12.60;54.82
73566;BME280;61846;52.970;-3.168;2023-04-30T07:25:44;100970.01;;;13.32;52.10
73566;BME280;61846;52.970;-3.168;2023-04-30T07:28:09;100977.81;;;12.20;55.34
73566;BME280;61846;52.970;-3.168;2023-04-30T07:30:34;100971.10;;;13.76;51.22
73566;BME280;61846;52.970;-3.168;2023-04-30T07:33:00;100970.96;;;14.34;50.15
73566;BME280;61846;52.970;-3.168;2023-04-30T07:35:26;100969.08;;;14.09;50.13
73566;BME280;61846;52.970;-3.168;2023-04-30T07:37:51;100967.88;;;12.10;53.51
73566;BME280;61846;52.970;-3.168;2023-04-30T07:40:17;100962.43;;;14.06;51.17
73566;BME280;61846;52.970;-3.168;2023-04-30T07:42:42;100963.87;;;11.75;54.24
73566;BME280;61846;52.970;-3.168;2023-04-30T07:45:08;100962.42;;;11.46;55.88
73566;BME280;61846;52.970;-3.168;2023-04-30T07:47:33;100959.75;;;11.58;56.47
73566;BME280;61846;52.970;-3.168;2023-04-30T07:49:59;100960.34;;;13.03;53.12
73566;BME280;61846;52.970;-3.168;2023-04-30T07:52:25;100962.15;;;12.90;53.80
73566;BME280;61846;52.970;-3.168;2023-04-30T07:54:50;100967.80;;;10.04;58.86
73566;BME280;61846;52.970;-3.168;2023-04-30T07:57:16;100963.92;;;13.10;53.56
73566;BME280;61846;52.970;-3.168;2023-04-30T07:59:42;100973.46;;;11.35;57.01
73566;BME280;61846;52.970;-3.168;2023-04-30T08:02:08;100979.25;;;10.13;60.26
73566;BME280;61846;52.970;-3.168;2023-04-30T08:04:32;100972.94;;;11.28;58.23
73566;BME280;61846;52.970;-3.168;2023-04-30T08:06:58;100967.31;;;12.77;54.74
73566;BME280;61846;52.970;-3.168;2023-04-30T08:09:23;100970.52;;;12.32;55.46
73566;BME280;61846;52.970;-3.168;2023-04-30T08:11:49;100969.23;;;12.08;56.03
73566;BME280;61846;52.970;-3.168;2023-04-30T08:14:14;100970.74;;;11.52;56.70
73566;BME280;61846;52.970;-3.168;2023-04-30T08:16:39;100969.03;;;10.74;58.17
73566;BME280;61846;52.970;-3.168;2023-04-30T08:19:05;100966.35;;;12.20;55.93
73566;BME280;61846;52.970;-3.168;2023-04-30T08:21:30;100970.47;;;12.11;55.95
73566;BME280;61846;52.970;-3.168;2023-04-30T08:23:55;100981.43;;;10.74;59.00
73566;BME280;61846;52.970;-3.168;2023-04-30T08:26:21;100969.40;;;12.02;56.51
73566;BME280;61846;52.970;-3.168;2023-04-30T08:28:46;100971.45;;;12.28;55.11
73566;BME280;61846;52.970;-3.168;2023-04-30T08:31:12;100966.24;;;13.88;51.74
73566;BME280;61846;52.970;-3.168;2023-04-30T08:33:37;100969.88;;;12.93;54.57
73566;BME280;61846;52.970;-3.168;2023-04-30T08:36:03;100968.90;;;12.45;54.53
73566;BME280;61846;52.970;-3.168;2023-04-30T08:38:28;100979.66;;;11.57;57.44
73566;BME280;61846;52.970;-3.168;2023-04-30T08:41:00;100972.32;;;13.93;53.30
73566;BME280;61846;52.970;-3.168;2023-04-30T08:43:19;100971.03;;;12.11;56.97
73566;BME280;61846;52.970;-3.168;2023-04-30T08:45:45;100968.00;;;11.82;56.37
73566;BME280;61846;52.970;-3.168;2023-04-30T08:48:10;100965.91;;;13.62;54.26
73566;BME280;61846;52.970;-3.168;2023-04-30T08:50:35;100969.46;;;14.06;52.35
73566;BME280;61846;52.970;-3.168;2023-04-30T08:53:01;100969.05;;;13.64;52.81
73566;BME280;61846;52.970;-3.168;2023-04-30T08:55:27;100967.59;;;12.62;55.72
73566;BME280;61846;52.970;-3.168;2023-04-30T08:57:52;100962.28;;;14.67;51.67
73566;BME280;61846;52.970;-3.168;2023-04-30T09:00:18;100968.08;;;13.82;52.92
73566;BME280;61846;52.970;-3.168;2023-04-30T09:02:44;100965.99;;;13.99;52.48
73566;BME280;61846;52.970;-3.168;2023-04-30T09:05:11;100968.41;;;15.14;51.33
73566;BME280;61846;52.970;-3.168;2023-04-30T09:07:35;100973.53;;;15.96;49.82
73566;BME280;61846;52.970;-3.168;2023-04-30T09:10:00;100970.83;;;15.84;48.21
73566;BME280;61846;52.970;-3.168;2023-04-30T09:12:25;100972.87;;;14.97;48.68
73566;BME280;61846;52.970;-3.168;2023-04-30T09:14:58;100975.42;;;14.77;49.19
73566;BME280;61846;52.970;-3.168;2023-04-30T09:17:20;100981.94;;;13.44;51.80
73566;BME280;61846;52.970;-3.168;2023-04-30T09:19:42;100985.31;;;11.43;56.97
73566;BME280;61846;52.970;-3.168;2023-04-30T09:22:18;100980.97;;;12.23;55.05
73566;BME280;61846;52.970;-3.168;2023-04-30T09:27:05;100981.05;;;14.07;52.30
73566;BME280;61846;52.970;-3.168;2023-04-30T09:31:49;100972.41;;;11.65;58.10
73566;BME280;61846;52.970;-3.168;2023-04-30T09:34:14;100970.68;;;13.33;55.13
73566;BME280;61846;52.970;-3.168;2023-04-30T09:36:51;100977.35;;;10.56;61.05
73566;BME280;61846;52.970;-3.168;2023-04-30T09:39:06;100977.29;;;10.66;62.06
73566;BME280;61846;52.970;-3.168;2023-04-30T09:41:31;100976.78;;;11.34;59.51
73566;BME280;61846;52.970;-3.168;2023-04-30T09:43:57;100972.78;;;12.41;58.18
73566;BME280;61846;52.970;-3.168;2023-04-30T09:46:29;100974.20;;;12.96;56.14
73566;BME280;61846;52.970;-3.168;2023-04-30T09:48:56;100970.22;;;14.04;53.86
73566;BME280;61846;52.970;-3.168;2023-04-30T09:51:13;100971.43;;;14.73;52.89
73566;BME280;61846;52.970;-3.168;2023-04-30T09:53:39;100972.92;;;15.19;50.97
73566;BME280;61846;52.970;-3.168;2023-04-30T09:56:06;100969.80;;;15.76;49.33
73566;BME280;61846;52.970;-3.168;2023-04-30T09:58:31;100967.50;;;14.66;50.58
73566;BME280;61846;52.970;-3.168;2023-04-30T10:00:57;100968.12;;;14.68;50.09
73566;BME280;61846;52.970;-3.168;2023-04-30T10:03:21;100969.56;;;14.70;51.10
73566;BME280;61846;52.970;-3.168;2023-04-30T10:05:47;100968.64;;;15.79;49.31
73566;BME280;61846;52.970;-3.168;2023-04-30T10:08:17;100975.01;;;14.57;50.86
73566;BME280;61846;52.970;-3.168;2023-04-30T10:10:37;100974.37;;;13.31;53.09
73566;BME280;61846;52.970;-3.168;2023-04-30T10:13:04;100968.86;;;13.70;53.26
73566;BME280;61846;52.970;-3.168;2023-04-30T10:15:31;100967.49;;;14.36;51.69
73566;BME280;61846;52.970;-3.168;2023-04-30T10:17:59;100966.73;;;14.47;51.23
73566;BME280;61846;52.970;-3.168;2023-04-30T10:20:19;100964.62;;;13.48;53.14
73566;BME280;61846;52.970;-3.168;2023-04-30T10:22:44;100967.87;;;13.39;52.95
73566;BME280;61846;52.970;-3.168;2023-04-30T10:25:09;100968.03;;;12.12;56.10
73566;BME280;61846;52.970;-3.168;2023-04-30T10:27:35;100968.06;;;12.05;56.64
73566;BME280;61846;52.970;-3.168;2023-04-30T10:30:00;100964.49;;;12.78;55.72
73566;BME280;61846;52.970;-3.168;2023-04-30T10:32:33;100962.34;;;12.84;56.22
73566;BME280;61846;52.970;-3.168;2023-04-30T10:34:58;100963.01;;;12.72;55.40
73566;BME280;61846;52.970;-3.168;2023-04-30T10:37:21;100962.02;;;14.58;52.27
73566;BME280;61846;52.970;-3.168;2023-04-30T10:39:42;100962.59;;;14.84;52.05
73566;BME280;61846;52.970;-3.168;2023-04-30T10:42:09;100962.73;;;15.85;49.31
73566;BME280;61846;52.970;-3.168;2023-04-30T10:44:33;100959.11;;;15.65;49.36
73566;BME280;61846;52.970;-3.168;2023-04-30T10:46:58;100960.38;;;15.14;50.05
73566;BME280;61846;52.970;-3.168;2023-04-30T10:49:24;100958.80;;;15.42;50.77
73566;BME280;61846;52.970;-3.168;2023-04-30T10:51:50;100955.62;;;15.43;49.66
73566;BME280;61846;52.970;-3.168;2023-04-30T10:54:15;100957.64;;;13.28;52.93
73566;BME280;61846;52.970;-3.168;2023-04-30T10:56:39;100957.09;;;14.77;51.25
73566;BME280;61846;52.970;-3.168;2023-04-30T10:59:05;100955.52;;;14.80;51.78
73566;BME280;61846;52.970;-3.168;2023-04-30T11:01:30;100953.75;;;14.41;51.27
73566;BME280;61846;52.970;-3.168;2023-04-30T11:04:04;100956.91;;;12.14;56.30
73566;BME280;61846;52.970;-3.168;2023-04-30T11:06:21;100955.17;;;12.95;55.39
73566;BME280;61846;52.970;-3.168;2023-04-30T11:08:48;100955.69;;;12.64;55.18
73566;BME280;61846;52.970;-3.168;2023-04-30T11:11:17;100949.45;;;13.48;54.35
73566;BME280;61846;52.970;-3.168;2023-04-30T11:13:40;100948.97;;;14.11;53.56
73566;BME280;61846;52.970;-3.168;2023-04-30T11:16:03;100946.76;;;13.72;54.19
73566;BME280;61846;52.970;-3.168;2023-04-30T11:18:30;100945.51;;;15.56;51.22
73566;BME280;61846;52.970;-3.168;2023-04-30T11:20:56;100940.19;;;16.04;51.02
73566;BME280;61846;52.970;-3.168;2023-04-30T11:23:22;100934.44;;;15.38;49.89
73566;BME280;61846;52.970;-3.168;2023-04-30T11:25:46;100932.04;;;14.64;51.78
73566;BME280;61846;52.970;-3.168;2023-04-30T11:28:13;100936.77;;;13.39;54.53
73566;BME280;61846;52.970;-3.168;2023-04-30T11:30:36;100929.16;;;13.47;56.10
73566;BME280;61846;52.970;-3.168;2023-04-30T11:33:01;100927.55;;;15.76;52.28
73566;BME280;61846;52.970;-3.168;2023-04-30T11:35:27;100923.56;;;15.86;51.33
73566;BME280;61846;52.970;-3.168;2023-04-30T11:37:54;100916.12;;;16.16;49.83
73566;BME280;61846;52.970;-3.168;2023-04-30T11:40:18;100921.06;;;16.57;50.00
73566;BME280;61846;52.970;-3.168;2023-04-30T11:42:43;100925.53;;;14.25;52.89
73566;BME280;61846;52.970;-3.168;2023-04-30T11:45:09;100929.44;;;15.40;50.61
73566;BME280;61846;52.970;-3.168;2023-04-30T11:47:40;100926.13;;;16.82;47.50
73566;BME280;61846;52.970;-3.168;2023-04-30T11:49:59;100925.23;;;16.93;46.40
73566;BME280;61846;52.970;-3.168;2023-04-30T11:52:25;100927.78;;;16.69;46.95
73566;BME280;61846;52.970;-3.168;2023-04-30T11:54:54;100932.01;;;13.62;52.15
73566;BME280;61846;52.970;-3.168;2023-04-30T11:57:15;100934.63;;;14.94;50.99
73566;BME280;61846;52.970;-3.168;2023-04-30T11:59:41;100931.50;;;16.09;48.07
73566;BME280;61846;52.970;-3.168;2023-04-30T12:02:06;100934.86;;;14.81;50.03
73566;BME280;61846;52.970;-3.168;2023-04-30T12:04:31;100929.83;;;15.41;49.63
73566;BME280;61846;52.970;-3.168;2023-04-30T12:06:57;100927.68;;;15.47;49.58
73566;BME280;61846;52.970;-3.168;2023-04-30T12:09:22;100925.55;;;16.79;47.05
73566;BME280;61846;52.970;-3.168;2023-04-30T12:11:48;100929.33;;;15.12;49.26
73566;BME280;61846;52.970;-3.168;2023-04-30T12:14:13;100928.15;;;16.96;46.64
73566;BME280;61846;52.970;-3.168;2023-04-30T12:16:40;100929.83;;;14.12;51.02
73566;BME280;61846;52.970;-3.168;2023-04-30T12:19:04;100920.18;;;16.76;46.81
73566;BME280;61846;52.970;-3.168;2023-04-30T12:21:30;100916.72;;;16.76;46.03
73566;BME280;61846;52.970;-3.168;2023-04-30T12:23:55;100921.07;;;15.97;48.95
73566;BME280;61846;52.970;-3.168;2023-04-30T12:26:20;100922.57;;;15.22;49.74
73566;BME280;61846;52.970;-3.168;2023-04-30T12:28:46;100925.06;;;15.21;50.16
73566;BME280;61846;52.970;-3.168;2023-04-30T12:31:11;100918.01;;;16.84;48.26
73566;BME280;61846;52.970;-3.168;2023-04-30T12:33:36;100916.33;;;16.22;49.59
73566;BME280;61846;52.970;-3.168;2023-04-30T12:36:02;100911.55;;;17.05;47.98